createdAt,value
2018-09-03T00:02:19.766Z,66.16
2018-09-03T00:04:48.932Z,66.30
2018-09-03T00:07:18.651Z,66.59
2018-09-03T00:09:47.945Z,66.21
2018-09-03T00:12:17.228Z,66.94
2018-09-03T00:14:46.790Z,66.75
2018-09-03T00:17:16.190Z,66.45
2018-09-03T00:19:45.939Z,66.69
2018-09-03T00:22:15.382Z,66.64
2018-09-03T00:24:44.894Z,67.17
2018-09-03T00:27:14.189Z,67.01
2018-09-03T00:29:43.724Z,67.12
2018-09-03T00:32:18.409Z,67.21
2018-09-03T00:34:52.930Z,67.77
2018-09-03T00:37:27.513Z,67.50
2018-09-03T00:40:01.810Z,67.79
2018-09-03T00:42:36.212Z,68.07
2018-09-03T00:45:11.036Z,68.28
2018-09-03T00:47:40.682Z,67.92
2018-09-03T00:50:10.365Z,67.95
2018-09-03T00:52:39.699Z,67.96
2018-09-03T00:55:09.061Z,68.09
2018-09-03T00:57:38.276Z,68.79
2018-09-03T01:00:07.938Z,68.58
2018-09-03T01:02:37.404Z,68.67
2018-09-03T01:05:06.763Z,68.93
2018-09-03T01:07:36.243Z,68.91
2018-09-03T01:10:06.046Z,69.30
2018-09-03T01:12:35.166Z,69.15
2018-09-03T01:15:05.458Z,69.20
2018-09-03T01:17:34.834Z,69.71
2018-09-03T01:20:04.229Z,69.94
2018-09-03T01:22:33.616Z,70.04
2018-09-03T01:25:02.622Z,70.30
2018-09-03T01:27:31.910Z,69.81
2018-09-03T01:30:01.128Z,69.93
2018-09-03T01:32:30.155Z,70.47
2018-09-03T01:34:59.088Z,70.05
2018-09-03T01:37:28.213Z,70.52
2018-09-03T01:39:57.690Z,70.63
2018-09-03T01:42:26.600Z,70.40
2018-09-03T01:44:55.725Z,70.72
2018-09-03T01:47:25.218Z,70.50
2018-09-03T01:49:54.134Z,70.35
2018-09-03T01:52:23.251Z,70.66
2018-09-03T01:54:52.272Z,71.03
2018-09-03T01:57:21.191Z,71.31
2018-09-03T01:59:50.451Z,71.11
2018-09-03T02:02:20.034Z,71.26
2018-09-03T02:04:48.893Z,71.02
2018-09-03T02:07:18.071Z,71.40
2018-09-03T02:09:47.411Z,71.83
2018-09-03T02:12:16.891Z,71.51
2018-09-03T02:14:45.988Z,71.34
2018-09-03T02:17:15.509Z,71.58
2018-09-03T02:19:44.765Z,71.67
2018-09-03T02:22:14.356Z,71.31
2018-09-03T02:24:43.767Z,71.80
2018-09-03T02:27:12.831Z,71.67
2018-09-03T02:29:42.050Z,71.34
2018-09-03T02:32:11.089Z,71.64
2018-09-03T02:34:40.117Z,71.75
2018-09-03T02:37:09.622Z,71.85
2018-09-03T02:39:38.766Z,71.75
2018-09-03T02:42:07.779Z,71.34
2018-09-03T02:44:37.282Z,71.76
2018-09-03T02:47:07.079Z,71.88
2018-09-03T02:49:36.170Z,72.05
2018-09-03T02:52:05.839Z,72.14
2018-09-03T02:54:34.855Z,71.59
2018-09-03T02:57:04.351Z,72.07
2018-09-03T02:59:33.682Z,71.68
2018-09-03T03:02:02.611Z,72.22
2018-09-03T03:04:31.613Z,72.28
2018-09-03T03:07:01.080Z,71.88
2018-09-03T03:09:30.527Z,71.95
2018-09-03T03:11:59.451Z,72.12
2018-09-03T03:14:28.772Z,72.63
2018-09-03T03:16:58.223Z,72.06
2018-09-03T03:19:27.445Z,71.96
2018-09-03T03:21:56.485Z,72.15
2018-09-03T03:24:25.456Z,72.77
2018-09-03T03:26:54.884Z,72.52
2018-09-03T03:29:24.328Z,72.80
2018-09-03T03:31:53.638Z,72.45
2018-09-03T03:34:22.815Z,73.14
2018-09-03T03:36:52.044Z,72.72
2018-09-03T03:39:21.399Z,72.82
2018-09-03T03:41:50.379Z,73.18
2018-09-03T03:44:19.614Z,73.25
2018-09-03T03:46:48.694Z,73.25
2018-09-03T03:49:18.400Z,72.56
2018-09-03T03:51:48.226Z,73.16
2018-09-03T03:54:17.709Z,73.22
2018-09-03T03:56:46.887Z,73.11
2018-09-03T03:59:16.403Z,73.19
2018-09-03T04:01:45.613Z,72.98
2018-09-03T04:04:14.684Z,73.02
2018-09-03T04:06:44.600Z,73.03
2018-09-03T04:09:14.128Z,72.93
2018-09-03T04:11:43.692Z,73.47
2018-09-03T04:14:12.899Z,73.50
2018-09-03T04:16:42.023Z,73.84
2018-09-03T04:19:11.397Z,73.75
2018-09-03T04:21:40.602Z,73.87
2018-09-03T04:24:09.946Z,73.39
2018-09-03T04:26:39.849Z,73.99
2018-09-03T04:29:09.757Z,73.79
2018-09-03T04:31:39.259Z,73.85
2018-09-03T04:34:08.261Z,73.52
2018-09-03T04:36:37.950Z,73.67
2018-09-03T04:39:09.930Z,74.02
2018-09-03T04:41:39.028Z,73.88
2018-09-03T04:44:08.831Z,74.05
2018-09-03T04:46:37.812Z,74.65
2018-09-03T04:49:07.233Z,74.56
2018-09-03T04:51:36.688Z,74.94
2018-09-03T04:54:06.057Z,74.79
2018-09-03T04:56:35.588Z,75.20
2018-09-03T04:59:05.160Z,74.86
2018-09-03T05:01:34.566Z,74.87
2018-09-03T05:04:04.288Z,75.02
2018-09-03T05:06:33.982Z,75.08
2018-09-03T05:09:03.178Z,74.94
2018-09-03T05:11:32.465Z,74.73
2018-09-03T05:14:01.464Z,74.50
2018-09-03T05:16:30.862Z,74.73
2018-09-03T05:18:59.788Z,74.75
2018-09-03T05:21:29.083Z,74.51
2018-09-03T05:23:58.201Z,74.97
2018-09-03T05:26:27.344Z,75.04
2018-09-03T05:28:56.424Z,75.13
2018-09-03T05:31:25.669Z,75.27
2018-09-03T05:33:54.967Z,74.88
2018-09-03T05:36:24.298Z,75.25
2018-09-03T05:38:53.382Z,74.87
2018-09-03T05:41:22.745Z,75.01
2018-09-03T05:43:52.031Z,74.76
2018-09-03T05:46:21.020Z,75.20
2018-09-03T05:48:50.338Z,75.56
2018-09-03T05:51:19.457Z,75.08
2018-09-03T05:53:48.519Z,74.71
2018-09-03T05:56:18.683Z,75.07
2018-09-03T05:58:48.015Z,74.85
2018-09-03T06:01:17.347Z,74.35
2018-09-03T06:03:46.705Z,74.94
2018-09-03T06:06:15.911Z,74.70
2018-09-03T06:08:45.092Z,74.64
2018-09-03T06:11:14.359Z,74.84
2018-09-03T06:13:43.767Z,74.21
2018-09-03T06:16:12.814Z,74.33
2018-09-03T06:18:42.024Z,73.87
2018-09-03T06:21:11.087Z,74.08
2018-09-03T06:23:40.163Z,74.05
2018-09-03T06:26:09.413Z,74.27
2018-09-03T06:28:38.343Z,74.43
2018-09-03T06:31:07.627Z,73.94
2018-09-03T06:33:36.906Z,73.74
2018-09-03T06:36:06.368Z,74.60
2018-09-03T06:38:35.300Z,74.28
2018-09-03T06:41:05.360Z,74.67
2018-09-03T06:43:34.339Z,74.59
2018-09-03T06:46:03.370Z,74.48
2018-09-03T06:48:32.479Z,74.62
2018-09-03T06:51:01.383Z,74.16
2018-09-03T06:53:30.818Z,74.73
2018-09-03T06:55:59.870Z,74.71
2018-09-03T06:58:28.826Z,74.27
2018-09-03T07:00:57.784Z,74.40
2018-09-03T07:03:27.374Z,73.70
2018-09-03T07:05:56.275Z,73.42
2018-09-03T07:08:25.357Z,73.36
2018-09-03T07:10:54.606Z,73.49
2018-09-03T07:13:23.607Z,72.92
2018-09-03T07:15:52.661Z,72.62
2018-09-03T07:18:22.455Z,72.03
2018-09-03T07:20:51.630Z,71.70
2018-09-03T07:23:21.802Z,71.83
2018-09-03T07:25:51.008Z,71.58
2018-09-03T07:28:20.076Z,70.70
2018-09-03T07:30:49.209Z,70.97
2018-09-03T07:33:18.494Z,70.93
2018-09-03T07:35:47.713Z,70.28
2018-09-03T07:38:16.966Z,70.26
2018-09-03T07:40:46.164Z,70.47
2018-09-03T07:43:15.458Z,69.94
2018-09-03T07:45:44.514Z,69.59
2018-09-03T07:48:13.825Z,69.19
2018-09-03T07:50:42.760Z,69.25
2018-09-03T07:53:11.843Z,69.00
2018-09-03T07:55:41.560Z,68.59
2018-09-03T07:58:10.945Z,68.31
2018-09-03T08:00:40.048Z,68.20
2018-09-03T08:03:09.173Z,67.77
2018-09-03T08:05:38.173Z,68.06
2018-09-03T08:08:07.589Z,67.53
2018-09-03T08:10:36.838Z,67.73
2018-09-03T08:13:06.194Z,67.17
2018-09-03T08:15:35.650Z,67.67
2018-09-03T08:18:05.116Z,67.27
2018-09-03T08:20:33.984Z,67.26
2018-09-03T08:23:02.948Z,67.35
2018-09-03T08:25:31.972Z,67.13
2018-09-03T08:28:00.899Z,66.51
2018-09-03T08:30:29.962Z,62.79
2018-09-03T08:32:59.196Z,59.36
2018-09-03T08:35:28.148Z,58.27
2018-09-03T08:37:57.187Z,55.66
2018-09-03T08:40:26.332Z,57.09
2018-09-03T08:42:55.299Z,58.47
2018-09-03T08:45:24.292Z,59.95
2018-09-03T08:47:53.373Z,60.61
2018-09-03T08:50:22.466Z,60.13
2018-09-03T08:52:51.459Z,60.20
2018-09-03T08:55:20.278Z,60.37
2018-09-03T08:57:49.353Z,59.83
2018-09-03T09:00:18.823Z,59.25
2018-09-03T09:02:48.309Z,59.95
2018-09-03T09:05:17.809Z,59.76
2018-09-03T09:07:47.286Z,59.42
2018-09-03T09:10:16.505Z,58.51
2018-09-03T09:12:45.346Z,58.07
2018-09-03T09:15:14.284Z,57.85
2018-09-03T09:17:43.492Z,57.11
2018-09-03T09:20:12.377Z,56.82
2018-09-03T09:22:41.585Z,57.52
2018-09-03T09:25:10.750Z,57.08
2018-09-03T09:27:39.654Z,56.73
2018-09-03T09:30:08.688Z,56.00
2018-09-03T09:32:37.902Z,54.58
2018-09-03T09:35:06.916Z,54.01
2018-09-03T09:37:35.967Z,53.41
2018-09-03T09:40:06.218Z,53.29
2018-09-03T09:42:35.331Z,53.71
2018-09-03T09:45:04.302Z,53.97
2018-09-03T09:47:33.425Z,53.48
2018-09-03T09:50:02.443Z,53.07
2018-09-03T09:52:31.605Z,52.44
2018-09-03T09:55:00.848Z,52.08
2018-09-03T09:57:29.883Z,52.23
2018-09-03T09:59:58.870Z,52.30
2018-09-03T10:02:28.093Z,51.50
2018-09-03T10:04:57.371Z,50.40
2018-09-03T10:07:26.374Z,50.28
2018-09-03T10:09:55.719Z,51.59
2018-09-03T10:12:30.080Z,51.30
2018-09-03T10:14:59.274Z,51.83
2018-09-03T10:17:28.828Z,51.51
2018-09-03T10:19:58.038Z,51.40
2018-09-03T10:22:27.437Z,51.69
2018-09-03T10:24:56.462Z,50.96
2018-09-03T10:27:25.435Z,50.50
2018-09-03T10:29:54.640Z,50.19
2018-09-03T10:32:23.838Z,49.18
2018-09-03T10:34:52.609Z,49.34
2018-09-03T10:37:21.837Z,50.02
2018-09-03T10:39:50.779Z,48.91
2018-09-03T10:42:24.932Z,47.47
2018-09-03T10:47:46.963Z,46.73
2018-09-03T10:50:16.146Z,48.13
2018-09-03T10:52:45.026Z,49.49
2018-09-03T10:55:13.908Z,49.71
2018-09-03T10:57:42.907Z,49.17
2018-09-03T11:00:11.901Z,49.11
2018-09-03T11:02:41.019Z,49.48
2018-09-03T11:05:10.177Z,48.38
2018-09-03T11:07:39.832Z,47.24
2018-09-03T11:10:08.934Z,47.55
2018-09-03T11:12:38.163Z,46.46
2018-09-03T11:15:07.177Z,46.16
2018-09-03T11:17:36.608Z,46.05
2018-09-03T11:20:08.335Z,45.60
2018-09-03T11:22:37.545Z,45.55
2018-09-03T11:25:06.683Z,44.89
2018-09-03T11:27:36.036Z,44.64
2018-09-03T11:30:06.035Z,43.56
2018-09-03T11:32:35.119Z,43.88
2018-09-03T11:35:04.133Z,43.74
2018-09-03T11:37:33.495Z,44.18
2018-09-03T11:40:02.622Z,44.20
2018-09-03T11:42:31.507Z,44.01
2018-09-03T11:45:00.713Z,44.19
2018-09-03T11:47:29.660Z,44.67
2018-09-03T11:49:58.731Z,44.48
2018-09-03T11:52:27.828Z,43.96
2018-09-03T11:54:56.810Z,43.29
2018-09-03T11:57:25.687Z,43.29
2018-09-03T11:59:54.748Z,43.55
2018-09-03T12:02:23.652Z,43.39
2018-09-03T12:04:52.707Z,42.02
2018-09-03T12:07:23.161Z,41.93
2018-09-03T12:09:52.410Z,42.38
2018-09-03T12:12:21.313Z,42.59
2018-09-03T12:17:43.004Z,42.65
2018-09-03T12:20:12.123Z,42.06
2018-09-03T12:22:41.035Z,42.48
2018-09-03T12:25:10.291Z,45.66
2018-09-03T12:27:39.296Z,48.40
2018-09-03T12:30:08.954Z,48.81
2018-09-03T12:32:38.126Z,49.01
2018-09-03T12:35:07.515Z,49.17
2018-09-03T12:37:36.569Z,49.62
2018-09-03T12:40:06.260Z,49.20
2018-09-03T12:42:35.432Z,49.52
2018-09-03T12:45:04.403Z,49.87
2018-09-03T12:47:33.686Z,50.26
2018-09-03T12:50:02.619Z,50.10
2018-09-03T12:52:31.495Z,48.83
2018-09-03T12:55:00.536Z,50.39
2018-09-03T12:57:29.376Z,52.21
2018-09-03T13:00:05.150Z,54.18
2018-09-03T13:02:27.423Z,54.88
2018-09-03T13:04:56.429Z,55.46
2018-09-03T13:07:25.397Z,55.82
2018-09-03T13:09:54.275Z,55.50
2018-09-03T13:12:23.213Z,55.30
2018-09-03T13:14:52.357Z,55.31
2018-09-03T13:17:21.257Z,55.57
2018-09-03T13:19:51.199Z,55.27
2018-09-03T13:22:20.398Z,54.78
2018-09-03T13:24:49.231Z,54.07
2018-09-03T13:27:18.154Z,54.66
2018-09-03T13:29:47.132Z,54.72
2018-09-03T13:32:16.661Z,54.01
2018-09-03T13:34:45.541Z,53.72
2018-09-03T13:37:14.703Z,53.38
2018-09-03T13:39:44.079Z,54.52
2018-09-03T13:42:13.012Z,54.65
2018-09-03T13:44:41.932Z,54.25
2018-09-03T13:47:10.889Z,53.88
2018-09-03T13:49:40.033Z,53.50
2018-09-03T13:52:09.071Z,53.78
2018-09-03T13:54:38.039Z,53.43
2018-09-03T13:57:07.024Z,54.18
2018-09-03T13:59:36.170Z,53.78
2018-09-03T14:02:05.522Z,54.97
2018-09-03T14:04:34.615Z,54.37
2018-09-03T14:07:03.457Z,54.46
2018-09-03T14:09:33.643Z,54.40
2018-09-03T14:12:03.009Z,54.62
2018-09-03T14:14:32.067Z,54.60
2018-09-03T14:17:01.127Z,55.47
2018-09-03T14:19:30.095Z,56.13
2018-09-03T14:21:59.405Z,56.14
2018-09-03T14:24:28.428Z,56.39
2018-09-03T14:26:57.543Z,56.15
2018-09-03T14:29:26.468Z,55.97
2018-09-03T14:31:55.408Z,56.06
2018-09-03T14:34:24.443Z,55.91
2018-09-03T14:36:53.390Z,56.44
2018-09-03T14:39:23.504Z,57.13
2018-09-03T14:41:52.860Z,56.54
2018-09-03T14:44:22.146Z,57.28
2018-09-03T14:46:51.036Z,57.41
2018-09-03T14:49:20.089Z,56.98
2018-09-03T14:51:49.017Z,56.78
2018-09-03T14:54:18.457Z,56.69
2018-09-03T14:56:47.458Z,56.76
2018-09-03T14:59:16.588Z,55.74
2018-09-03T15:01:45.760Z,55.73
2018-09-03T15:04:15.102Z,56.12
2018-09-03T15:06:44.000Z,56.29
2018-09-03T15:09:13.909Z,56.20
2018-09-03T15:11:43.198Z,56.14
2018-09-03T15:14:12.505Z,56.73
2018-09-03T15:16:41.734Z,57.38
2018-09-03T15:19:11.200Z,57.33
2018-09-03T15:21:40.454Z,57.51
2018-09-03T15:24:09.880Z,56.78
2018-09-03T15:26:39.486Z,56.76
2018-09-03T15:29:08.914Z,57.41
2018-09-03T15:31:38.367Z,57.25
2018-09-03T15:34:07.356Z,56.96
2018-09-03T15:36:36.451Z,57.50
2018-09-03T15:39:08.524Z,56.70
2018-09-03T15:41:37.824Z,56.21
2018-09-03T15:44:06.952Z,56.16
2018-09-03T15:46:36.203Z,56.66
2018-09-03T15:49:06.012Z,56.06
2018-09-03T15:51:34.960Z,56.49
2018-09-03T15:54:04.550Z,55.93
2018-09-03T15:56:33.739Z,56.46
2018-09-03T15:59:03.116Z,56.77
2018-09-03T16:01:32.447Z,57.03
2018-09-03T16:04:01.534Z,57.36
2018-09-03T16:06:30.523Z,57.05
2018-09-03T16:08:59.583Z,56.60
2018-09-03T16:11:28.588Z,57.42
2018-09-03T16:13:57.750Z,57.57
2018-09-03T16:16:26.993Z,57.13
2018-09-03T16:18:55.915Z,57.48
2018-09-03T16:21:24.984Z,57.17
2018-09-03T16:23:53.895Z,57.76
2018-09-03T16:26:22.908Z,57.79
2018-09-03T16:28:51.961Z,58.14
2018-09-03T16:31:20.999Z,57.75
2018-09-03T16:33:50.180Z,58.29
2018-09-03T16:36:19.649Z,58.50
2018-09-03T16:38:48.943Z,59.65
2018-09-03T16:41:18.608Z,59.19
2018-09-03T16:43:47.947Z,59.08
2018-09-03T16:46:17.074Z,58.83
2018-09-03T16:48:46.061Z,59.00
2018-09-03T16:51:15.300Z,59.62
2018-09-03T16:53:44.126Z,59.45
2018-09-03T16:56:13.708Z,59.74
2018-09-03T16:58:42.995Z,59.95
2018-09-03T17:01:12.367Z,59.74
2018-09-03T17:03:41.284Z,59.82
2018-09-03T17:06:10.682Z,59.66
2018-09-03T17:08:39.680Z,59.88
2018-09-03T17:11:08.661Z,59.99
2018-09-03T17:13:37.625Z,60.09
2018-09-03T17:16:06.512Z,60.23
2018-09-03T17:18:35.596Z,60.25
2018-09-03T17:21:04.597Z,59.84
2018-09-03T17:23:33.903Z,60.45
2018-09-03T17:26:02.973Z,60.46
2018-09-03T17:28:32.441Z,60.06
2018-09-03T17:31:01.637Z,60.76
2018-09-03T17:33:30.910Z,60.18
2018-09-03T17:36:00.246Z,60.83
2018-09-03T17:38:29.306Z,60.64
2018-09-03T17:40:58.635Z,61.23
2018-09-03T17:43:27.792Z,61.38
2018-09-03T17:45:57.296Z,60.97
2018-09-03T17:48:26.758Z,61.34
2018-09-03T17:50:56.064Z,61.03
2018-09-03T17:53:25.005Z,61.04
2018-09-03T17:55:54.123Z,61.64
2018-09-03T17:58:23.116Z,61.48
2018-09-03T18:00:52.778Z,61.78
2018-09-03T18:03:22.334Z,62.20
2018-09-03T18:05:51.177Z,62.29
2018-09-03T18:08:20.907Z,62.52
2018-09-03T18:10:50.805Z,62.78
2018-09-03T18:13:20.280Z,62.33
2018-09-03T18:15:49.312Z,62.84
2018-09-03T18:18:18.590Z,62.92
2018-09-03T18:20:48.059Z,62.52
2018-09-03T18:23:17.178Z,62.38
2018-09-03T18:25:46.280Z,62.85
2018-09-03T18:28:15.911Z,63.10
2018-09-03T18:30:45.392Z,63.24
2018-09-03T18:33:14.484Z,63.22
2018-09-03T18:35:43.624Z,63.28
2018-09-03T18:38:13.727Z,63.03
2018-09-03T18:40:43.609Z,63.38
2018-09-03T18:43:12.646Z,63.15
2018-09-03T18:45:41.552Z,63.28
2018-09-03T18:48:19.013Z,63.51
2018-09-03T18:50:49.258Z,63.19
2018-09-03T18:53:18.564Z,63.09
2018-09-03T18:55:48.491Z,63.65
2018-09-03T18:58:18.229Z,63.78
2018-09-03T19:00:47.458Z,63.75
2018-09-03T19:03:17.488Z,63.63
2018-09-03T19:05:46.809Z,64.02
2018-09-03T19:08:16.794Z,63.83
2018-09-03T19:10:46.316Z,63.88
2018-09-03T19:13:15.822Z,64.31
2018-09-03T19:15:44.947Z,64.23
2018-09-03T19:18:14.111Z,64.75
2018-09-03T19:20:43.475Z,64.59
2018-09-03T19:23:12.517Z,64.76
2018-09-03T19:25:41.658Z,64.89
2018-09-03T19:28:10.696Z,64.91
2018-09-03T19:30:40.076Z,65.07
2018-09-03T19:33:09.201Z,65.32
2018-09-03T19:35:39.061Z,65.68
2018-09-03T19:38:08.261Z,65.66
2018-09-03T19:40:37.275Z,65.43
2018-09-03T19:43:06.283Z,65.96
2018-09-03T19:45:36.166Z,65.60
2018-09-03T19:48:05.372Z,66.20
2018-09-03T19:50:34.781Z,66.04
2018-09-03T19:53:04.051Z,66.14
2018-09-03T19:55:33.013Z,66.99
2018-09-03T19:58:07.643Z,66.57
2018-09-03T20:00:36.832Z,66.91
2018-09-03T20:03:06.069Z,66.80
2018-09-03T20:05:35.590Z,67.60
2018-09-03T20:08:04.675Z,67.57
2018-09-03T20:10:33.876Z,67.59
2018-09-03T20:13:03.938Z,67.71
2018-09-03T20:15:33.001Z,68.25
2018-09-03T20:18:02.375Z,67.87
2018-09-03T20:20:31.716Z,67.62
2018-09-03T20:23:00.881Z,68.07
2018-09-03T20:25:30.042Z,68.42
2018-09-03T20:27:59.158Z,68.45
2018-09-03T20:30:28.440Z,69.08
2018-09-03T20:32:58.041Z,69.26
2018-09-03T20:35:27.059Z,69.72
2018-09-03T20:37:56.652Z,69.53
2018-09-03T20:40:25.673Z,69.73
2018-09-03T20:42:54.859Z,69.77
2018-09-03T20:45:23.979Z,69.64
2018-09-03T20:47:59.702Z,70.26
2018-09-03T20:50:28.751Z,70.30
2018-09-03T20:52:58.437Z,70.09
2018-09-03T20:55:27.563Z,70.70
2018-09-03T20:57:56.627Z,70.54
2018-09-03T21:00:25.525Z,70.34
2018-09-03T21:02:54.483Z,70.69
2018-09-03T21:05:24.151Z,70.77
2018-09-03T21:07:53.422Z,70.67
2018-09-03T21:10:22.806Z,70.63
2018-09-03T21:12:51.815Z,70.42
2018-09-03T21:15:20.938Z,70.51
2018-09-03T21:17:49.816Z,70.93
2018-09-03T21:20:19.409Z,70.65
2018-09-03T21:22:48.497Z,70.50
2018-09-03T21:25:17.501Z,70.87
2018-09-03T21:27:46.541Z,70.76
2018-09-03T21:30:16.521Z,70.52
2018-09-03T21:32:45.497Z,70.86
2018-09-03T21:35:14.503Z,70.61
2018-09-03T21:37:43.835Z,70.96
2018-09-03T21:40:12.755Z,70.81
2018-09-03T21:42:41.609Z,70.31
2018-09-03T21:45:10.574Z,70.72
2018-09-03T21:47:39.725Z,70.61
2018-09-03T21:50:08.926Z,70.57
2018-09-03T21:52:39.034Z,70.66
2018-09-03T21:55:08.691Z,70.61
2018-09-03T21:57:37.886Z,70.70
2018-09-03T22:00:06.976Z,71.15
2018-09-03T22:02:36.119Z,71.30
2018-09-03T22:05:05.387Z,70.90
2018-09-03T22:07:34.484Z,71.50
2018-09-03T22:10:03.440Z,71.13
2018-09-03T22:12:32.630Z,71.80
2018-09-03T22:15:01.757Z,71.87
2018-09-03T22:17:30.760Z,71.73
2018-09-03T22:19:59.797Z,71.66
2018-09-03T22:22:28.854Z,72.22
2018-09-03T22:24:57.854Z,71.82
2018-09-03T22:27:27.099Z,71.42
2018-09-03T22:29:56.218Z,71.33
2018-09-03T22:32:25.487Z,71.81
2018-09-03T22:34:54.468Z,72.70
2018-09-03T22:37:24.451Z,72.56
2018-09-03T22:39:53.449Z,73.11
2018-09-03T22:42:26.159Z,72.99
2018-09-03T22:44:56.506Z,73.37
2018-09-03T22:47:25.492Z,73.41
2018-09-03T22:49:54.386Z,73.93
2018-09-03T22:52:23.561Z,73.97
2018-09-03T22:54:52.499Z,73.68
2018-09-03T22:57:21.441Z,73.50
2018-09-03T22:59:50.657Z,73.58
2018-09-03T23:02:19.610Z,73.52
2018-09-03T23:04:48.766Z,73.97
2018-09-03T23:07:17.934Z,73.72
2018-09-03T23:09:47.236Z,73.74
2018-09-03T23:12:16.857Z,74.33
2018-09-03T23:14:45.811Z,74.20
2018-09-03T23:17:14.737Z,74.20
2018-09-03T23:19:43.737Z,74.21
2018-09-03T23:22:12.681Z,74.52
2018-09-03T23:24:41.568Z,74.79
2018-09-03T23:27:10.554Z,74.86
2018-09-03T23:29:39.772Z,74.81
2018-09-03T23:32:09.103Z,74.76
2018-09-03T23:34:38.034Z,74.72
2018-09-03T23:37:07.012Z,75.13
2018-09-03T23:39:36.004Z,74.98
2018-09-03T23:42:05.206Z,74.85
2018-09-03T23:44:34.184Z,75.03
2018-09-03T23:47:03.137Z,75.10
2018-09-03T23:49:32.136Z,74.58
2018-09-03T23:52:01.206Z,75.27
2018-09-03T23:54:30.071Z,75.02
2018-09-03T23:56:58.969Z,75.50
2018-09-03T23:59:28.030Z,75.15
